Time;durP1;ratioP1;P1;durP2;ratioP2;P2;SDS_P1;SDS_P2;PMS_P1;PMS_P2;Temp;Humidity;BMP_temperature;BMP_pressure;BME280_temperature;BME280_humidity;BME280_pressure;Samples;Min_cycle;Max_cycle;Signal;HPM_P1;HPM_P2
2022/06/06 00:02:26;;;;;;;0.00;0.00;;;19.80;99.90;;;;;;4910044;29;20044;-75
2022/06/06 00:04:52;;;;;;;0.00;0.00;;;19.80;99.90;;;;;;4928115;29;20319;-73
2022/06/06 00:07:18;;;;;;;0.00;0.00;;;19.70;99.90;;;;;;4909030;29;20043;-72
2022/06/06 00:09:43;;;;;;;0.00;0.00;;;20.10;99.90;;;;;;4925912;29;20031;-72
2022/06/06 00:12:09;;;;;;;0.00;0.00;;;19.80;99.90;;;;;;4925764;29;20303;-72
2022/06/06 00:14:35;;;;;;;0.00;0.00;;;19.80;99.90;;;;;;4929811;29;20256;-72
2022/06/06 00:17:00;;;;;;;0.00;0.00;;;19.90;99.90;;;;;;4919865;29;20111;-75
2022/06/06 00:19:27;;;;;;;0.00;0.00;;;19.90;99.90;;;;;;4924281;29;20143;-74
2022/06/06 00:21:53;;;;;;;0.00;0.00;;;19.90;99.90;;;;;;4920822;29;20019;-72
2022/06/06 00:24:19;;;;;;;0.00;0.00;;;19.90;99.90;;;;;;4911825;29;20099;-71
2022/06/06 00:26:44;;;;;;;0.00;0.00;;;19.90;99.90;;;;;;4926839;29;20162;-71
2022/06/06 00:29:14;;;;;;;0.00;0.00;;;19.80;99.90;;;;;;4919577;29;20096;-74
2022/06/06 00:37:12;;;;;;;0.00;0.00;;;19.90;99.90;;;;;;4931410;29;20373;-72
2022/06/06 00:39:40;;;;;;;0.00;0.00;;;19.90;99.90;;;;;;4907372;29;20020;-72
2022/06/06 00:42:32;;;;;;;0.00;0.00;;;19.90;99.90;;;;;;4931567;29;20639;-76
2022/06/06 00:45:23;;;;;;;0.00;0.00;;;20.00;99.90;;;;;;4908704;29;20306;-71
2022/06/06 00:48:01;;;;;;;0.00;0.00;;;20.00;99.90;;;;;;4931109;29;20032;-79
2022/06/06 00:50:37;;;;;;;0.00;0.00;;;20.00;99.90;;;;;;4910571;29;20032;-73
2022/06/06 00:53:04;;;;;;;0.00;0.00;;;20.00;99.90;;;;;;4929174;29;20076;-72
2022/06/06 00:55:33;;;;;;;0.00;0.00;;;20.00;99.90;;;;;;4925952;29;20027;-71
2022/06/06 00:58:05;;;;;;;0.00;0.00;;;20.00;99.90;;;;;;4923142;29;20024;-76
2022/06/06 01:00:31;;;;;;;0.00;0.00;;;20.00;99.90;;;;;;4931919;29;20033;-71
2022/06/06 01:03:01;;;;;;;0.00;0.00;;;20.00;99.90;;;;;;4919096;29;20099;-71
2022/06/06 01:05:27;;;;;;;0.00;0.00;;;20.00;99.90;;;;;;4942187;29;20027;-72
2022/06/06 01:07:53;;;;;;;0.00;0.00;;;19.90;99.90;;;;;;4936736;29;20024;-76
2022/06/06 01:10:20;;;;;;;0.00;0.00;;;19.90;99.90;;;;;;4928592;29;20051;-71
2022/06/06 01:12:49;;;;;;;0.00;0.00;;;19.90;99.90;;;;;;4952654;29;20031;-74
2022/06/06 01:15:17;;;;;;;0.00;0.00;;;19.90;99.90;;;;;;4948360;29;20042;-75
2022/06/06 01:18:05;;;;;;;0.00;0.00;;;19.90;99.90;;;;;;4943417;29;20098;-72
2022/06/06 01:21:01;;;;;;;0.00;0.00;;;19.90;99.90;;;;;;4948674;29;20019;-72
2022/06/06 01:23:48;;;;;;;0.00;0.00;;;19.90;99.90;;;;;;4922917;29;20043;-75
2022/06/06 01:26:41;;;;;;;0.00;0.00;;;20.00;99.90;;;;;;4949553;29;20028;-72
2022/06/06 01:29:23;;;;;;;0.00;0.00;;;19.90;99.90;;;;;;4928445;29;20023;-72
2022/06/06 01:31:57;;;;;;;0.00;0.00;;;20.00;99.90;;;;;;4952035;29;20023;-71
2022/06/06 01:34:29;;;;;;;0.00;0.00;;;19.90;99.90;;;;;;4935572;29;20198;-72
2022/06/06 01:36:56;;;;;;;0.00;0.00;;;19.90;99.90;;;;;;4954063;29;20075;-72
2022/06/06 01:39:25;;;;;;;0.00;0.00;;;19.80;99.90;;;;;;4935950;29;20299;-71
2022/06/06 01:42:20;;;;;;;0.00;0.00;;;19.80;99.90;;;;;;4936544;29;20039;-73
2022/06/06 01:44:47;;;;;;;0.00;0.00;;;19.80;99.90;;;;;;4951481;29;20518;-72
2022/06/06 01:47:26;;;;;;;0.00;0.00;;;19.80;99.90;;;;;;4936038;29;20090;-73
2022/06/06 01:49:55;;;;;;;0.00;0.00;;;19.80;99.90;;;;;;4930280;29;20206;-72
2022/06/06 01:52:21;;;;;;;0.00;0.00;;;19.70;99.90;;;;;;4930734;29;20059;-72
2022/06/06 01:54:47;;;;;;;0.00;0.00;;;19.70;99.90;;;;;;4951494;29;20026;-72
2022/06/06 01:57:16;;;;;;;0.00;0.00;;;19.70;99.90;;;;;;4935638;29;20035;-74
2022/06/06 01:59:41;;;;;;;0.00;0.00;;;19.70;99.90;;;;;;4952519;29;20019;-72
2022/06/06 02:02:08;;;;;;;0.00;0.00;;;19.70;99.90;;;;;;4931442;29;20478;-72
2022/06/06 02:04:35;;;;;;;0.00;0.00;;;19.70;99.90;;;;;;4936284;29;20039;-73
2022/06/06 02:07:00;;;;;;;0.00;0.00;;;19.70;99.90;;;;;;4911171;29;20056;-72
2022/06/06 02:09:31;;;;;;;0.00;0.00;;;19.70;99.90;;;;;;4917242;29;20148;-74
2022/06/06 02:12:00;;;;;;;0.00;0.00;;;19.70;99.90;;;;;;4913867;29;20024;-72
2022/06/06 02:14:26;;;;;;;0.00;0.00;;;19.70;99.90;;;;;;4915154;29;20039;-76
2022/06/06 02:16:52;;;;;;;0.00;0.00;;;19.60;99.90;;;;;;4934268;29;20028;-75
2022/06/06 02:19:18;;;;;;;0.00;0.00;;;19.60;99.90;;;;;;4921085;29;20327;-72
2022/06/06 02:21:44;;;;;;;0.00;0.00;;;19.70;99.90;;;;;;4923482;29;20039;-72
2022/06/06 02:24:10;;;;;;;0.00;0.00;;;19.60;99.90;;;;;;4914913;29;20028;-72
2022/06/06 02:26:36;;;;;;;0.00;0.00;;;19.70;99.90;;;;;;4931133;29;20032;-78
2022/06/06 02:29:02;;;;;;;0.00;0.00;;;19.60;99.90;;;;;;4921950;29;20026;-74
2022/06/06 02:31:28;;;;;;;0.00;0.00;;;19.60;99.90;;;;;;4930511;29;20106;-72
2022/06/06 02:33:54;;;;;;;0.00;0.00;;;19.60;99.90;;;;;;4914959;29;20024;-74
2022/06/06 02:36:20;;;;;;;0.00;0.00;;;19.70;99.90;;;;;;4922733;29;20039;-75
2022/06/06 02:38:45;;;;;;;0.00;0.00;;;19.70;99.90;;;;;;4932573;29;20036;-72
2022/06/06 02:41:11;;;;;;;0.00;0.00;;;19.60;99.90;;;;;;4910239;29;20039;-72
2022/06/06 02:43:39;;;;;;;0.00;0.00;;;19.60;99.90;;;;;;4923568;29;20031;-72
2022/06/06 02:46:07;;;;;;;0.00;0.00;;;19.60;99.90;;;;;;4933092;29;20051;-75
2022/06/06 02:48:33;;;;;;;0.00;0.00;;;19.70;99.90;;;;;;4927238;29;20062;-73
2022/06/06 02:50:59;;;;;;;0.00;0.00;;;19.70;99.90;;;;;;4931743;29;20024;-77
2022/06/06 02:53:25;;;;;;;0.00;0.00;;;19.70;99.90;;;;;;4928724;29;20227;-72
2022/06/06 02:55:52;;;;;;;0.00;0.00;;;19.80;99.90;;;;;;4909174;29;20027;-72
2022/06/06 02:58:20;;;;;;;0.00;0.00;;;19.70;99.90;;;;;;4917478;29;20024;-73
2022/06/06 03:00:47;;;;;;;0.00;0.00;;;19.70;99.90;;;;;;4912181;29;20039;-77
2022/06/06 03:03:13;;;;;;;0.00;0.00;;;19.70;99.90;;;;;;4918646;29;20231;-72
2022/06/06 03:06:23;;;;;;;0.00;0.00;;;19.70;99.90;;;;;;4934301;29;20150;-73
2022/06/06 03:09:00;;;;;;;0.00;0.00;;;19.80;99.90;;;;;;4907835;29;20034;-72
2022/06/06 03:12:03;;;;;;;0.00;0.00;;;19.70;99.90;;;;;;4953020;29;20027;-74
2022/06/06 03:14:44;;;;;;;0.00;0.00;;;19.70;99.90;;;;;;4935973;29;20055;-72
2022/06/06 03:20:47;;;;;;;0.00;0.00;;;19.70;99.90;;;;;;4950998;29;20042;-72
2022/06/06 03:23:36;;;;;;;0.00;0.00;;;19.80;99.90;;;;;;4941960;29;20057;-73
2022/06/06 03:26:14;;;;;;;0.00;0.00;;;19.70;99.90;;;;;;4932923;29;20091;-73
2022/06/06 03:28:55;;;;;;;0.00;0.00;;;19.70;99.90;;;;;;4930430;29;20257;-73
2022/06/06 03:31:35;;;;;;;0.00;0.00;;;19.70;99.90;;;;;;4935111;29;20031;-73
2022/06/06 03:34:30;;;;;;;0.00;0.00;;;19.80;99.90;;;;;;4932936;29;20035;-74
2022/06/06 03:37:23;;;;;;;0.00;0.00;;;19.80;99.90;;;;;;4927973;29;20219;-73
2022/06/06 03:40:05;;;;;;;0.00;0.00;;;19.80;99.90;;;;;;4946903;29;20039;-72
2022/06/06 03:42:49;;;;;;;0.00;0.00;;;19.80;99.90;;;;;;4947558;28;20020;-75
2022/06/06 03:45:20;;;;;;;0.00;0.00;;;19.80;99.90;;;;;;4953671;28;20054;-71
2022/06/06 03:47:56;;;;;;;0.00;0.00;;;19.80;99.90;;;;;;4951774;29;20059;-75
2022/06/06 03:50:54;;;;;;;0.00;0.00;;;19.70;99.90;;;;;;4940970;29;20034;-73
2022/06/06 03:53:51;;;;;;;0.00;0.00;;;19.70;99.90;;;;;;4949550;28;20023;-71
2022/06/06 03:56:22;;;;;;;0.00;0.00;;;19.70;99.90;;;;;;4951158;29;20035;-72
2022/06/06 03:58:49;;;;;;;0.00;0.00;;;19.70;99.90;;;;;;4947580;29;20027;-73
2022/06/06 04:01:15;;;;;;;0.00;0.00;;;19.70;99.90;;;;;;4948727;29;20055;-72
2022/06/06 04:03:44;;;;;;;0.00;0.00;;;19.80;99.90;;;;;;4934901;29;20039;-73
2022/06/06 04:06:09;;;;;;;;;;;19.70;99.90;;;;;;4928486;29;20201;-72
2022/06/06 04:08:35;;;;;;;0.00;0.00;;;19.70;99.90;;;;;;4927939;29;19906;-73
2022/06/06 04:11:13;;;;;;;0.00;0.00;;;19.70;99.90;;;;;;4924879;29;20024;-73
2022/06/06 04:13:56;;;;;;;;;;;19.70;99.90;;;;;;4906785;29;20044;-73
2022/06/06 04:16:44;;;;;;;0.00;0.00;;;19.70;99.90;;;;;;4913312;29;19911;-72
2022/06/06 04:19:48;;;;;;;0.00;0.00;;;19.70;99.90;;;;;;4911666;29;20024;-72
2022/06/06 04:22:32;;;;;;;0.00;0.00;;;19.60;99.90;;;;;;4931240;29;20507;-76
2022/06/06 04:25:22;;;;;;;0.00;0.00;;;19.60;99.90;;;;;;4913747;29;20597;-73
2022/06/06 04:28:35;;;;;;;0.00;0.00;;;19.60;99.90;;;;;;4911577;29;20024;-72
2022/06/06 04:31:17;;;;;;;0.00;0.00;;;19.60;99.90;;;;;;4892366;29;20032;-72
2022/06/06 04:34:09;;;;;;;0.00;0.00;;;19.50;99.90;;;;;;4912685;29;20028;-73
2022/06/06 04:36:59;;;;;;;0.00;0.00;;;19.50;99.90;;;;;;4918997;29;20055;-73
2022/06/06 04:39:30;;;;;;;0.00;0.00;;;19.50;99.90;;;;;;4932866;29;20024;-73
2022/06/06 04:42:07;;;;;;;0.00;0.00;;;19.60;99.90;;;;;;4916822;29;20028;-80
2022/06/06 04:44:39;;;;;;;0.00;0.00;;;19.50;99.90;;;;;;4927587;29;20219;-73
2022/06/06 04:47:10;;;;;;;0.00;0.00;;;19.50;99.90;;;;;;4909816;29;20036;-72
2022/06/06 04:49:36;;;;;;;0.00;0.00;;;19.50;99.90;;;;;;4930305;29;20287;-77
2022/06/06 04:52:04;;;;;;;0.00;0.00;;;19.50;99.90;;;;;;4926279;29;20296;-74
2022/06/06 04:54:31;;;;;;;0.00;0.00;;;19.50;99.90;;;;;;4926036;29;20055;-73
2022/06/06 04:57:00;;;;;;;0.00;0.00;;;19.60;99.90;;;;;;4913019;29;20035;-74
2022/06/06 04:59:29;;;;;;;0.00;0.00;;;19.60;99.90;;;;;;4913882;29;20069;-77
2022/06/06 05:01:57;;;;;;;0.00;0.00;;;19.60;99.90;;;;;;4926366;29;20141;-79
2022/06/06 05:04:23;;;;;;;0.00;0.00;;;19.60;99.90;;;;;;4939525;29;20090;-71
2022/06/06 05:07:00;;;;;;;0.00;0.00;;;19.60;99.90;;;;;;4929821;29;20248;-71
2022/06/06 05:09:41;;;;;;;0.00;0.00;;;19.60;99.90;;;;;;4926132;29;20107;-76
2022/06/06 05:12:24;;;;;;;0.00;0.00;;;19.70;99.90;;;;;;4933671;29;20019;-71
2022/06/06 05:15:04;;;;;;;0.00;0.00;;;19.70;99.90;;;;;;4910369;29;20032;-71
2022/06/06 05:17:53;;;;;;;0.00;0.00;;;19.70;99.90;;;;;;4915207;29;20310;-71
2022/06/06 05:20:38;;;;;;;0.00;0.00;;;19.70;99.90;;;;;;4915201;29;20024;-71
2022/06/06 05:23:06;;;;;;;0.00;0.00;;;19.70;99.90;;;;;;4935669;29;20030;-72
2022/06/06 05:25:35;;;;;;;0.00;0.00;;;19.70;99.90;;;;;;4914126;29;20048;-71
2022/06/06 05:28:06;;;;;;;0.00;0.00;;;19.80;99.90;;;;;;4916696;29;20069;-73
2022/06/06 05:31:00;;;;;;;0.00;0.00;;;19.80;99.90;;;;;;4932965;29;20020;-71
2022/06/06 05:33:36;;;;;;;0.00;0.00;;;19.70;99.90;;;;;;4924233;29;20448;-72
2022/06/06 05:36:17;;;;;;;0.00;0.00;;;19.80;99.90;;;;;;4930785;29;20032;-72
2022/06/06 05:39:08;;;;;;;0.00;0.00;;;19.70;99.90;;;;;;4918127;29;20027;-72
2022/06/06 05:42:01;;;;;;;0.00;0.00;;;19.70;99.90;;;;;;4915558;29;20056;-72
2022/06/06 05:44:52;;;;;;;0.00;0.00;;;19.70;99.90;;;;;;4927826;29;20319;-71
2022/06/06 05:47:49;;;;;;;0.00;0.00;;;19.70;99.90;;;;;;4924313;29;20032;-71
2022/06/06 05:50:36;;;;;;;0.00;0.00;;;19.70;99.90;;;;;;4913324;29;20134;-72
2022/06/06 05:53:11;;;;;;;0.00;0.00;;;19.70;99.90;;;;;;4934061;29;20024;-72
2022/06/06 05:55:56;;;;;;;0.00;0.00;;;19.70;99.90;;;;;;4937380;29;20032;-72
2022/06/06 05:58:40;;;;;;;0.00;0.00;;;19.80;99.90;;;;;;4938022;29;20180;-72
2022/06/06 06:01:40;;;;;;;0.00;0.00;;;19.70;99.90;;;;;;4926596;29;20019;-72
2022/06/06 06:04:30;;;;;;;0.00;0.00;;;19.70;99.90;;;;;;4927126;29;20823;-79
2022/06/06 06:07:05;;;;;;;0.00;0.00;;;19.80;99.90;;;;;;4928241;29;20024;-79
2022/06/06 06:10:06;;;;;;;0.00;0.00;;;19.80;99.90;;;;;;4916321;29;20215;-71
2022/06/06 06:12:44;;;;;;;0.00;0.00;;;19.90;99.90;;;;;;4916102;29;20046;-72
2022/06/06 06:15:26;;;;;;;0.00;0.00;;;19.90;99.90;;;;;;4929337;29;20024;-71
2022/06/06 06:17:54;;;;;;;0.00;0.00;;;20.00;99.90;;;;;;4912817;29;20065;-77
2022/06/06 06:20:30;;;;;;;0.00;0.00;;;20.00;99.90;;;;;;4927013;29;20031;-72
2022/06/06 06:23:04;;;;;;;0.00;0.00;;;20.10;99.90;;;;;;4933837;29;20091;-79
2022/06/06 06:25:34;;;;;;;0.00;0.00;;;20.10;99.90;;;;;;4916327;29;20295;-71
2022/06/06 06:28:06;;;;;;;0.00;0.00;;;20.10;99.90;;;;;;4915285;29;20023;-72
2022/06/06 06:30:45;;;;;;;0.00;0.00;;;20.10;99.90;;;;;;4917432;29;20023;-76
2022/06/06 06:33:33;;;;;;;0.00;0.00;;;20.20;99.90;;;;;;4930735;29;20046;-76
2022/06/06 06:36:32;;;;;;;0.00;0.00;;;20.20;99.90;;;;;;4908825;29;20058;-75
2022/06/06 06:39:06;;;;;;;0.00;0.00;;;20.30;99.90;;;;;;4913672;29;20032;-71
2022/06/06 06:41:48;;;;;;;0.00;0.00;;;20.40;99.90;;;;;;4930637;29;20212;-72
2022/06/06 06:44:24;;;;;;;0.00;0.00;;;20.50;99.90;;;;;;4913393;29;20020;-74
2022/06/06 06:46:58;;;;;;;0.00;0.00;;;20.60;99.90;;;;;;4919201;29;20383;-75
2022/06/06 06:49:49;;;;;;;0.00;0.00;;;20.70;99.90;;;;;;4918464;29;20095;-72
2022/06/06 06:52:27;;;;;;;0.00;0.00;;;21.00;99.90;;;;;;4913223;29;20030;-73
2022/06/06 06:55:22;;;;;;;0.00;0.00;;;21.10;99.90;;;;;;4926899;29;20032;-72
2022/06/06 06:58:01;;;;;;;0.00;0.00;;;21.20;99.90;;;;;;4926609;29;20032;-72
2022/06/06 07:00:46;;;;;;;0.00;0.00;;;21.40;99.90;;;;;;4931770;29;20027;-71
2022/06/06 07:09:34;;;;;;;0.00;0.00;;;22.20;99.90;;;;;;4930499;29;20190;-72
2022/06/06 07:12:19;;;;;;;0.00;0.00;;;22.60;99.90;;;;;;4928457;29;20318;-73
2022/06/06 07:14:59;;;;;;;0.00;0.00;;;22.90;99.90;;;;;;4912526;29;20032;-70
2022/06/06 07:17:26;;;;;;;0.00;0.00;;;23.20;99.90;;;;;;4927237;29;20031;-70
2022/06/06 07:19:59;;;;;;;0.00;0.00;;;23.40;99.90;;;;;;4915344;29;20026;-71
2022/06/06 07:22:59;;;;;;;0.00;0.00;;;23.40;98.80;;;;;;4927802;29;20020;-70
2022/06/06 07:25:16;;;;;;;0.00;0.00;;;23.20;98.20;;;;;;4932880;29;20173;-76
2022/06/06 07:27:42;;;;;;;0.00;0.00;;;23.00;98.40;;;;;;4915322;29;20028;-71
2022/06/06 07:30:08;;;;;;;0.00;0.00;;;22.70;98.60;;;;;;4920211;29;20088;-72
2022/06/06 07:32:48;;;;;;;0.00;0.00;;;22.60;99.10;;;;;;4914153;29;20075;-70
2022/06/06 07:35:39;;;;;;;0.00;0.00;;;22.50;99.20;;;;;;4922101;29;20038;-70
2022/06/06 07:38:11;;;;;;;0.00;0.00;;;22.40;99.60;;;;;;4927429;29;20103;-71
2022/06/06 07:40:39;;;;;;;0.00;0.00;;;22.40;99.60;;;;;;4930418;29;20086;-71
2022/06/06 07:43:23;;;;;;;0.00;0.00;;;22.40;99.50;;;;;;4912855;29;20299;-71
2022/06/06 07:46:10;;;;;;;0.00;0.00;;;22.30;99.50;;;;;;4919907;29;20024;-71
2022/06/06 07:48:54;;;;;;;0.00;0.00;;;22.30;99.50;;;;;;4929853;29;20447;-77
2022/06/06 07:52:04;;;;;;;0.00;0.00;;;22.20;99.20;;;;;;4913995;29;20027;-71
2022/06/06 07:54:39;;;;;;;0.00;0.00;;;22.30;99.40;;;;;;4928958;29;20035;-75
2022/06/06 07:57:20;;;;;;;0.00;0.00;;;22.40;99.50;;;;;;4931765;29;20218;-70
2022/06/06 07:59:58;;;;;;;0.00;0.00;;;22.60;99.70;;;;;;4926634;29;20417;-74
2022/06/06 08:02:26;;;;;;;;;;;22.80;99.10;;;;;;4934635;29;20099;-71
2022/06/06 08:05:10;;;;;;;0.00;0.00;;;23.00;98.50;;;;;;4913437;29;19949;-73
2022/06/06 08:07:42;;;;;;;0.00;0.00;;;23.20;98.80;;;;;;4907333;29;20611;-71
2022/06/06 08:10:49;;;;;;;0.00;0.00;;;23.70;98.70;;;;;;4929125;29;20015;-71
2022/06/06 08:13:20;;;;;;;0.00;0.00;;;24.20;97.50;;;;;;4895224;29;20035;-70
2022/06/06 08:16:05;;;;;;;0.00;0.00;;;24.60;97.10;;;;;;4930136;29;20132;-73
2022/06/06 08:18:57;;;;;;;0.00;0.00;;;25.00;96.00;;;;;;4933191;29;20030;-70
2022/06/06 08:21:33;;;;;;;0.00;0.00;;;25.30;94.70;;;;;;4912129;29;20031;-70
2022/06/06 08:24:01;;;;;;;0.00;0.00;;;25.40;94.30;;;;;;4913455;29;20015;-74
2022/06/06 08:26:27;;;;;;;0.00;0.00;;;25.50;94.10;;;;;;4929917;29;20059;-72
2022/06/06 08:28:54;;;;;;;0.00;0.00;;;25.50;93.60;;;;;;4930324;29;20079;-71
2022/06/06 08:31:20;;;;;;;0.00;0.00;;;25.40;93.00;;;;;;4933081;29;20233;-74
2022/06/06 08:33:47;;;;;;;0.00;0.00;;;25.60;93.20;;;;;;4921725;29;20218;-74
2022/06/06 08:36:12;;;;;;;0.00;0.00;;;25.70;92.40;;;;;;4912619;29;20039;-71
2022/06/06 08:39:17;;;;;;;0.00;0.00;;;25.60;92.50;;;;;;4913778;29;20202;-72
2022/06/06 08:42:01;;;;;;;0.00;0.00;;;25.70;92.60;;;;;;4926410;29;20023;-71
2022/06/06 08:44:36;;;;;;;0.00;0.00;;;25.80;92.50;;;;;;4913850;29;20020;-71
2022/06/06 08:47:06;;;;;;;0.00;0.00;;;25.80;92.20;;;;;;4912226;29;20229;-71
2022/06/06 08:53:13;;;;;;;0.00;0.00;;;26.40;92.30;;;;;;4861082;29;20241;-71
2022/06/06 08:55:48;;;;;;;0.00;0.00;;;27.30;91.60;;;;;;4861317;29;20072;-72
2022/06/06 08:58:25;;;;;;;0.00;0.00;;;28.30;91.40;;;;;;4845637;29;20041;-71
2022/06/06 09:01:03;;;;;;;0.00;0.00;;;29.10;86.20;;;;;;4861271;29;20067;-72
2022/06/06 09:03:51;;;;;;;0.00;0.00;;;29.20;83.30;;;;;;4868436;29;20102;-72
2022/06/06 09:06:59;;;;;;;0.00;0.00;;;29.80;83.30;;;;;;4879387;29;20032;-71
2022/06/06 09:09:36;;;;;;;0.00;0.00;;;30.00;79.70;;;;;;4879501;29;20028;-71
2022/06/06 09:12:20;;;;;;;0.00;0.00;;;30.30;77.20;;;;;;4879684;29;20021;-69
2022/06/06 09:14:55;;;;;;;0.00;0.00;;;30.50;77.90;;;;;;4879537;29;20113;-74
2022/06/06 09:18:05;;;;;;;0.00;0.00;;;31.40;78.20;;;;;;4897765;29;20092;-75
2022/06/06 09:20:47;;;;;;;0.00;0.00;;;32.80;72.90;;;;;;4868216;29;20036;-73
2022/06/06 09:23:35;;;;;;;0.00;0.00;;;34.00;70.30;;;;;;4913395;29;20220;-72
2022/06/06 09:26:24;;;;;;;0.00;0.00;;;34.00;65.30;;;;;;4899300;29;20027;-75
2022/06/06 09:29:33;;;;;;;0.00;0.00;;;34.60;64.20;;;;;;4945996;28;20259;-72
2022/06/06 09:32:36;;;;;;;0.00;0.00;;;34.90;63.60;;;;;;4897977;29;20031;-72
2022/06/06 09:35:07;;;;;;;0.00;0.00;;;35.40;63.30;;;;;;4947150;29;20023;-71
2022/06/06 09:37:48;;;;;;;0.00;0.00;;;36.10;62.40;;;;;;4942893;29;20039;-71
2022/06/06 09:40:32;;;;;;;0.00;0.00;;;37.10;58.20;;;;;;4947137;29;20015;-72
2022/06/06 09:43:11;;;;;;;0.00;0.00;;;36.10;56.80;;;;;;4951095;29;20028;-73
2022/06/06 09:46:30;;;;;;;0.00;0.00;;;36.80;57.90;;;;;;4947801;29;20032;-77
2022/06/06 09:49:16;;;;;;;0.00;0.00;;;37.30;56.10;;;;;;4853137;29;20040;-79
2022/06/06 09:51:53;;;;;;;0.00;0.00;;;36.30;55.30;;;;;;4943138;29;20059;-71
2022/06/06 10:01:21;;;;;;;0.00;0.00;;;36.10;55.50;;;;;;4921733;28;20062;-74
2022/06/06 10:03:47;;;;;;;0.00;0.00;;;37.50;56.10;;;;;;4919393;29;20254;-73
2022/06/06 10:06:34;;;;;;;0.00;0.00;;;38.50;54.20;;;;;;4953932;29;20023;-72
2022/06/06 10:09:02;;;;;;;0.00;0.00;;;39.30;51.90;;;;;;4949296;29;20022;-72
2022/06/06 10:11:52;;;;;;;0.00;0.00;;;38.10;49.80;;;;;;4953007;29;20047;-74
2022/06/06 10:14:34;;;;;;;0.00;0.00;;;36.60;52.40;;;;;;4948833;29;20302;-72
2022/06/06 10:17:05;;;;;;;0.00;0.00;;;36.40;53.90;;;;;;4939765;29;20213;-71
2022/06/06 10:19:57;;;;;;;0.00;0.00;;;36.10;54.80;;;;;;4942028;29;20027;-74
2022/06/06 10:23:07;;;;;;;0.00;0.00;;;36.60;55.80;;;;;;4952060;29;20024;-71
2022/06/06 10:26:10;;;;;;;0.00;0.00;;;36.50;53.90;;;;;;4911223;29;20035;-72
2022/06/06 10:28:38;;;;;;;0.00;0.00;;;37.10;52.10;;;;;;4940010;29;20098;-80
2022/06/06 10:31:12;;;;;;;0.00;0.00;;;37.30;52.70;;;;;;4931063;29;20114;-72
2022/06/06 10:33:41;;;;;;;0.00;0.00;;;36.80;51.40;;;;;;4936085;29;20027;-74
2022/06/06 10:36:16;;;;;;;0.00;0.00;;;35.80;53.20;;;;;;4952270;29;20043;-72
2022/06/06 10:39:10;;;;;;;0.00;0.00;;;34.30;53.50;;;;;;4936305;29;20083;-72
2022/06/06 10:41:57;;;;;;;0.00;0.00;;;32.40;56.20;;;;;;4931974;29;20043;-76
2022/06/06 10:45:08;;;;;;;0.00;0.00;;;31.30;58.70;;;;;;4952015;29;20031;-72
2022/06/06 10:47:46;;;;;;;0.00;0.00;;;30.40;60.20;;;;;;4949325;29;20385;-72
2022/06/06 10:50:16;;;;;;;0.00;0.00;;;29.90;61.40;;;;;;4933670;29;20019;-72
2022/06/06 10:53:18;;;;;;;0.00;0.00;;;30.10;62.50;;;;;;4950085;29;20270;-72
2022/06/06 10:56:23;;;;;;;0.00;0.00;;;30.30;63.60;;;;;;4947703;29;20023;-76
2022/06/06 10:59:20;;;;;;;0.00;0.00;;;31.80;62.80;;;;;;4933265;29;20315;-72
2022/06/06 11:01:48;;;;;;;0.00;0.00;;;33.50;59.00;;;;;;4939952;29;20664;-73
2022/06/06 11:04:45;;;;;;;0.00;0.00;;;35.50;57.00;;;;;;4914829;29;20092;-72
2022/06/06 11:07:32;;;;;;;0.00;0.00;;;37.00;53.40;;;;;;4913945;29;20050;-72
2022/06/06 11:10:00;;;;;;;0.00;0.00;;;38.20;51.60;;;;;;4921474;29;20084;-73
2022/06/06 11:12:51;;;;;;;0.00;0.00;;;38.90;51.00;;;;;;4916080;29;20057;-73
2022/06/06 11:15:17;;;;;;;0.00;0.00;;;39.50;48.60;;;;;;4932511;29;20028;-73
2022/06/06 11:18:07;;;;;;;0.00;0.00;;;39.10;48.70;;;;;;4921465;29;20036;-73
2022/06/06 11:20:58;;;;;;;0.00;0.00;;;39.40;49.10;;;;;;4934234;29;20252;-72
2022/06/06 11:23:43;;;;;;;0.00;0.00;;;39.90;47.60;;;;;;4921123;29;20031;-72
2022/06/06 11:26:30;;;;;;;0.00;0.00;;;40.10;47.70;;;;;;4920064;29;20024;-73
2022/06/06 11:29:19;;;;;;;0.00;0.00;;;39.70;47.60;;;;;;4919460;29;20035;-74
2022/06/06 11:32:00;;;;;;;0.00;0.00;;;37.60;47.70;;;;;;4920659;29;20133;-77
2022/06/06 11:34:40;;;;;;;0.00;0.00;;;36.90;49.50;;;;;;4928722;29;20278;-78
2022/06/06 11:37:48;;;;;;;0.00;0.00;;;36.40;50.20;;;;;;4929713;29;20043;-80
2022/06/06 11:40:31;;;;;;;0.00;0.00;;;35.20;50.70;;;;;;4892761;29;20059;-71
2022/06/06 11:43:18;;;;;;;0.00;0.00;;;34.00;52.70;;;;;;4911199;29;20059;-76
2022/06/06 11:46:17;;;;;;;0.00;0.00;;;33.10;54.40;;;;;;4925737;29;20055;-71
2022/06/06 11:49:27;;;;;;;0.00;0.00;;;32.70;54.90;;;;;;4903180;29;20035;-71
2022/06/06 11:51:58;;;;;;;0.00;0.00;;;32.30;55.50;;;;;;4906099;29;20039;-71
2022/06/06 11:54:36;;;;;;;0.00;0.00;;;31.60;55.30;;;;;;4914461;29;20236;-71
2022/06/06 11:57:20;;;;;;;0.00;0.00;;;31.30;56.00;;;;;;4927082;29;20032;-73
2022/06/06 11:59:55;;;;;;;0.00;0.00;;;30.90;57.00;;;;;;4930244;29;20031;-72
2022/06/06 12:02:45;;;;;;;0.00;0.00;;;30.60;57.30;;;;;;4927880;29;20028;-71
2022/06/06 12:05:20;;;;;;;0.00;0.00;;;30.50;59.30;;;;;;4947325;29;20047;-71
2022/06/06 12:08:19;;;;;;;0.00;0.00;;;30.30;59.10;;;;;;4950934;29;20567;-79
2022/06/06 12:10:57;;;;;;;0.00;0.00;;;29.90;60.10;;;;;;4949306;29;20310;-71
2022/06/06 12:13:44;;;;;;;0.00;0.00;;;29.70;61.00;;;;;;4940501;29;20091;-71
2022/06/06 12:16:25;;;;;;;0.00;0.00;;;29.30;60.90;;;;;;4945252;29;20111;-71
2022/06/06 12:19:09;;;;;;;0.00;0.00;;;28.90;61.70;;;;;;4942499;29;20028;-71
2022/06/06 12:22:05;;;;;;;0.00;0.00;;;28.80;62.20;;;;;;4940333;29;20050;-71
2022/06/06 12:24:49;;;;;;;0.00;0.00;;;28.60;62.70;;;;;;4902881;29;20085;-76
2022/06/06 12:27:20;;;;;;;0.00;0.00;;;28.60;62.90;;;;;;4946454;29;20028;-70
2022/06/06 12:29:51;;;;;;;0.00;0.00;;;28.40;62.70;;;;;;4925518;29;20149;-80
2022/06/06 12:32:54;;;;;;;0.00;0.00;;;28.30;63.70;;;;;;4942714;29;20092;-71
2022/06/06 12:35:22;;;;;;;0.00;0.00;;;28.30;63.50;;;;;;4939677;29;20020;-71
2022/06/06 12:38:02;;;;;;;0.00;0.00;;;28.20;64.10;;;;;;4928551;29;20039;-71
2022/06/06 12:41:01;;;;;;;0.00;0.00;;;28.20;64.30;;;;;;4949427;29;20210;-72
2022/06/06 12:43:52;;;;;;;0.00;0.00;;;28.30;63.70;;;;;;4925780;29;20078;-71
2022/06/06 12:46:38;;;;;;;0.00;0.00;;;28.20;62.90;;;;;;4943729;28;20035;-71
2022/06/06 12:49:25;;;;;;;0.00;0.00;;;28.10;63.60;;;;;;4938455;29;20031;-70
2022/06/06 12:52:15;;;;;;;0.00;0.00;;;27.90;63.80;;;;;;4945113;29;20023;-70
2022/06/06 12:57:39;;;;;;;0.00;0.00;;;28.00;64.80;;;;;;4950930;28;20039;-75
2022/06/06 13:00:09;;;;;;;0.00;0.00;;;27.90;64.30;;;;;;4927210;29;20015;-71
2022/06/06 13:02:47;;;;;;;0.00;0.00;;;27.90;64.60;;;;;;4950897;29;20019;-70
2022/06/06 13:05:50;;;;;;;0.00;0.00;;;27.90;64.60;;;;;;4951514;29;20030;-70
2022/06/06 13:08:39;;;;;;;0.00;0.00;;;27.80;65.80;;;;;;4927732;29;20040;-79
2022/06/06 13:11:13;;;;;;;0.00;0.00;;;27.70;65.20;;;;;;4942919;29;20046;-71
2022/06/06 13:14:08;;;;;;;0.00;0.00;;;27.60;66.00;;;;;;4949789;29;20019;-70
2022/06/06 13:17:06;;;;;;;0.00;0.00;;;27.60;66.30;;;;;;4932222;29;20051;-73
2022/06/06 13:19:41;;;;;;;0.00;0.00;;;27.70;66.70;;;;;;4925662;29;20031;-71
2022/06/06 13:22:25;;;;;;;0.00;0.00;;;27.70;66.20;;;;;;4944554;29;20025;-71
2022/06/06 13:25:31;;;;;;;0.00;0.00;;;27.80;66.50;;;;;;4948776;29;20168;-71
2022/06/06 13:28:18;;;;;;;0.00;0.00;;;27.80;66.30;;;;;;4943795;29;20175;-70
2022/06/06 13:30:47;;;;;;;0.00;0.00;;;27.80;67.20;;;;;;4950739;29;20259;-71
2022/06/06 13:33:50;;;;;;;0.00;0.00;;;27.80;67.30;;;;;;4949233;29;20031;-71
2022/06/06 13:36:43;;;;;;;0.00;0.00;;;27.80;66.90;;;;;;4894880;29;20056;-72
2022/06/06 13:39:22;;;;;;;0.00;0.00;;;27.80;66.80;;;;;;4932592;29;20024;-71
2022/06/06 13:42:03;;;;;;;0.00;0.00;;;27.80;66.90;;;;;;4953712;29;20027;-71
2022/06/06 13:44:49;;;;;;;0.00;0.00;;;27.80;67.80;;;;;;4935745;29;20030;-75
2022/06/06 13:47:37;;;;;;;0.00;0.00;;;27.60;66.20;;;;;;4948744;29;20068;-70
2022/06/06 13:50:12;;;;;;;0.00;0.00;;;27.50;66.80;;;;;;4950491;29;20078;-70
2022/06/06 13:52:55;;;;;;;0.00;0.00;;;27.40;67.50;;;;;;4941674;29;20044;-75
2022/06/06 13:55:30;;;;;;;0.00;0.00;;;27.40;67.60;;;;;;4942534;29;20019;-71
2022/06/06 13:58:08;;;;;;;0.00;0.00;;;27.50;66.80;;;;;;4931613;28;20100;-71
2022/06/06 14:00:38;;;;;;;;;;;27.60;66.20;;;;;;4933674;29;20310;-71
2022/06/06 14:03:25;;;;;;;0.00;0.00;;;27.60;66.50;;;;;;4933522;29;19922;-70
2022/06/06 14:06:16;;;;;;;0.00;0.00;;;27.60;66.60;;;;;;4950237;29;20105;-70
2022/06/06 14:08:56;;;;;;;0.00;0.00;;;27.50;64.90;;;;;;4950026;29;20020;-71
2022/06/06 14:11:27;;;;;;;0.00;0.00;;;27.60;65.20;;;;;;4957416;29;20027;-70
2022/06/06 14:13:57;;;;;;;0.00;0.00;;;27.50;65.00;;;;;;4952545;29;20079;-72
2022/06/06 14:16:45;;;;;;;0.00;0.00;;;27.50;64.80;;;;;;4930830;29;20325;-70
2022/06/06 14:19:18;;;;;;;0.00;0.00;;;27.50;65.30;;;;;;4947566;29;20319;-71
2022/06/06 14:22:01;;;;;;;0.00;0.00;;;27.50;65.00;;;;;;4953639;29;20056;-74